.
WxDataArchive / Data Records for 2008-03-20
2008-03-19 March 2008 2008-03-21

Data Records for Thursday, 20 March 2008

Time	Temp	Chill	HIndex	Humid	Dewpt	 Wind 	HiWind	WindDir	Rain 	Barom 
-----	----	-----	------	-----	-----	------	------	-------	-----	----- 
00:00	31.6	31.6	31.6	77	25.2	0	1	270	0.00	29.915 
00:05	31.5	31.5	31.5	78	25.4	0	0	---	0.00	29.915 
00:10	31.2	31.2	31.2	79	25.5	0	1	270	0.00	29.915 
00:15	31.0	31.0	31.0	79	25.3	0	1	270	0.00	29.915 
00:20	30.9	30.9	30.9	80	25.5	0	1	270	0.00	29.918 
00:25	30.7	30.7	30.7	80	25.3	0	1	270	0.00	29.922 
00:30	30.7	30.7	30.7	80	25.3	0	1	270	0.00	29.925 
00:35	30.7	30.7	30.7	80	25.3	0	1	270	0.00	29.926 
00:40	30.7	30.7	30.7	80	25.3	0	1	270	0.00	29.929 
00:45	30.7	30.7	30.7	80	25.3	0	1	270	0.00	29.929 
00:50	30.9	30.9	30.9	80	25.5	0	2	270	0.00	29.930 
00:55	30.9	30.9	30.9	80	25.5	0	1	270	0.00	29.930 
01:00	31.0	31.0	31.0	80	25.6	0	2	270	0.00	29.932 
01:05	31.0	31.0	31.0	80	25.6	0	2	270	0.00	29.936 
01:10	31.0	31.0	31.0	80	25.6	0	3	248	0.00	29.937 
01:15	31.0	31.0	31.0	80	25.6	1	3	248	0.00	29.940 
01:20	31.0	31.0	31.0	81	25.9	1	2	248	0.00	29.939 
01:25	31.0	31.0	31.0	81	25.9	0	2	248	0.00	29.942 
01:30	31.0	31.0	31.0	81	25.9	1	3	248	0.00	29.941 
01:35	30.9	30.9	30.9	81	25.8	0	1	248	0.00	29.944 
01:40	30.7	30.7	30.7	81	25.6	0	1	248	0.00	29.943 
01:45	30.6	30.6	30.6	81	25.5	0	1	248	0.00	29.944 
01:50	30.6	30.6	30.6	81	25.5	0	2	248	0.00	29.944 
01:55	30.7	30.7	30.7	81	25.6	0	3	248	0.00	29.944 
02:00	30.7	30.7	30.7	81	25.6	0	1	248	0.00	29.944 
02:05	30.6	30.6	30.6	81	25.5	0	1	248	0.00	29.943 
02:10	30.4	30.4	30.4	81	25.3	0	1	248	0.00	29.943 
02:15	30.3	30.3	30.3	82	25.5	0	1	248	0.00	29.945 
02:20	30.3	30.3	30.3	82	25.5	0	1	248	0.00	29.946 
02:25	30.3	30.3	30.3	82	25.5	0	3	248	0.00	29.946 
02:30	30.3	30.3	30.3	82	25.5	0	2	248	0.00	29.946 
02:35	30.3	30.3	30.3	82	25.5	0	1	248	0.00	29.946 
02:40	30.3	30.3	30.3	82	25.5	0	1	248	0.00	29.946 
02:45	30.3	30.3	30.3	82	25.5	0	2	248	0.00	29.947 
02:50	30.3	30.3	30.3	82	25.5	0	2	248	0.00	29.948 
02:55	30.3	30.3	30.3	82	25.5	0	2	248	0.00	29.948 
03:00	30.1	30.1	30.1	82	25.3	0	2	248	0.00	29.948 
03:05	30.1	30.1	30.1	82	25.3	0	1	248	0.00	29.947 
03:10	30.1	30.1	30.1	82	25.3	0	1	248	0.00	29.950 
03:15	30.1	30.1	30.1	82	25.3	0	1	248	0.00	29.948 
03:20	30.1	30.1	30.1	83	25.6	0	1	248	0.00	29.950 
03:25	30.1	30.1	30.1	83	25.6	0	1	248	0.00	29.950 
03:30	30.0	30.0	30.0	83	25.5	0	1	248	0.00	29.951 
03:35	30.0	30.0	30.0	83	25.5	1	2	248	0.00	29.954 
03:40	30.0	30.0	30.0	83	25.5	0	2	248	0.00	29.958 
03:45	30.0	30.0	30.0	83	25.5	0	1	248	0.00	29.957 
03:50	30.0	30.0	30.0	84	25.8	1	2	248	0.00	29.958 
03:55	30.0	30.0	30.0	84	25.8	1	2	248	0.00	29.960 
04:00	30.1	30.1	30.1	84	25.9	1	2	248	0.00	29.961 
04:05	30.1	30.1	30.1	84	25.9	1	2	248	0.00	29.960 
04:10	30.1	30.1	30.1	84	25.9	1	3	248	0.00	29.961 
04:15	30.3	30.3	30.3	84	26.1	1	2	248	0.00	29.964 
04:20	30.1	30.1	30.1	83	25.6	1	2	248	0.00	29.966 
04:25	30.1	30.1	30.1	84	25.9	1	3	248	0.00	29.969 
04:30	30.3	30.3	30.3	84	26.1	1	2	248	0.00	29.971 
04:35	30.3	30.3	30.3	83	25.8	1	2	315	0.00	29.976 
04:40	30.3	30.3	30.3	83	25.8	1	2	315	0.00	29.977 
04:45	30.3	30.3	30.3	83	25.8	0	1	315	0.00	29.977 
04:50	30.1	30.1	30.1	83	25.6	0	1	315	0.00	29.979 
04:55	30.1	30.1	30.1	83	25.6	0	2	315	0.00	29.978 
05:00	30.1	30.1	30.1	83	25.6	0	2	315	0.00	29.980 
05:05	30.1	30.1	30.1	83	25.6	0	2	315	0.00	29.982 
05:10	30.1	30.1	30.1	83	25.6	1	2	315	0.00	29.986 
05:15	30.1	30.1	30.1	83	25.6	0	2	315	0.00	29.988 
05:20	30.0	30.0	30.0	83	25.5	0	1	315	0.00	29.988 
05:25	30.0	30.0	30.0	83	25.5	0	2	315	0.00	29.992 
05:30	29.8	29.8	29.8	83	25.3	0	2	248	0.00	29.993 
05:35	29.8	29.8	29.8	83	25.3	0	2	248	0.00	29.996 
05:40	29.8	29.8	29.8	83	25.3	0	1	248	0.00	30.000 
05:45	29.7	29.7	29.7	83	25.2	0	3	248	0.00	30.005 
05:50	29.7	29.7	29.7	83	25.2	0	1	248	0.00	30.007 
05:55	29.7	29.7	29.7	84	25.5	0	1	248	0.00	30.007 
06:00	29.7	29.7	29.7	84	25.5	0	2	248	0.00	30.008 
06:05	29.5	29.5	29.5	84	25.3	0	1	248	0.00	30.012 
06:10	29.5	29.5	29.5	84	25.3	0	2	248	0.00	30.016 
06:15	29.5	29.5	29.5	84	25.3	0	2	248	0.00	30.020 
06:20	29.5	29.5	29.5	84	25.3	0	2	248	0.00	30.024 
06:25	29.4	29.4	29.4	84	25.2	0	1	248	0.00	30.025 
06:30	29.5	29.5	29.5	84	25.3	0	1	248	0.00	30.026 
06:35	29.5	29.5	29.5	84	25.3	0	1	248	0.00	30.027 
06:40	29.5	29.5	29.5	84	25.3	0	2	248	0.00	30.033 
06:45	29.7	29.7	29.7	84	25.5	0	1	248	0.00	30.037 
06:50	29.7	29.7	29.7	84	25.5	0	1	248	0.00	30.039 
06:55	29.7	29.7	29.7	84	25.5	0	2	248	0.00	30.041 
07:00	29.7	29.7	29.7	84	25.5	0	2	248	0.00	30.042 
07:05	29.7	29.7	29.7	84	25.5	0	1	248	0.00	30.046 
07:10	29.8	29.8	29.8	84	25.6	0	1	248	0.00	30.047 
07:15	30.0	30.0	30.0	84	25.8	0	1	248	0.00	30.050 
07:20	30.1	30.1	30.1	84	25.9	0	1	248	0.00	30.053 
07:25	30.3	30.3	30.3	84	26.1	0	1	248	0.00	30.056 
07:30	30.6	30.6	30.6	83	26.1	0	2	248	0.00	30.057 
07:35	31.0	31.0	31.0	83	26.5	0	2	248	0.00	30.057 
07:40	31.3	31.3	31.3	82	26.5	0	2	248	0.00	30.057 
07:45	31.6	31.6	31.6	82	26.7	0	1	248	0.00	30.057 
07:50	31.9	31.9	31.9	81	26.7	0	3	248	0.00	30.060 
07:55	32.2	32.2	32.2	81	27.0	0	2	248	0.00	30.063 
08:00	32.5	32.5	32.5	81	27.3	0	1	248	0.00	30.065 
08:05	32.8	32.8	32.8	80	27.3	0	2	248	0.00	30.067 
08:10	33.1	33.1	33.1	79	27.3	0	2	248	0.00	30.069 
08:15	33.2	33.2	33.2	78	27.1	0	2	0	0.00	30.069 
08:20	33.7	33.7	33.7	78	27.6	0	2	0	0.00	30.069 
08:25	34.0	34.0	34.0	76	27.2	0	3	0	0.00	30.071 
08:30	34.3	34.3	34.3	74	26.9	0	2	0	0.00	30.071 
08:35	34.7	34.7	34.7	72	26.6	1	2	0	0.00	30.073 
08:40	34.9	34.9	34.9	69	25.8	1	3	315	0.00	30.078 
08:45	35.2	35.2	35.2	69	26.1	1	3	270	0.00	30.084 
08:50	35.5	35.5	35.5	67	25.6	1	3	315	0.00	30.085 
08:55	35.9	35.9	35.9	66	25.7	0	2	315	0.00	30.084 
09:00	36.3	36.3	36.3	61	24.2	1	3	248	0.00	30.085 
09:05	36.5	36.5	36.5	55	21.9	2	5	315	0.00	30.087 
09:10	36.6	36.6	36.6	55	22.0	1	4	338	0.00	30.088 
09:15	36.9	36.9	36.9	54	21.8	1	3	315	0.00	30.089 
09:20	37.2	37.2	37.2	54	22.1	1	5	315	0.00	30.092 
09:25	37.5	37.5	37.5	53	21.9	1	3	315	0.00	30.096 
09:30	37.6	37.6	37.6	50	20.7	2	5	270	0.00	30.098 
09:35	37.6	37.6	37.6	53	22.0	2	5	338	0.00	30.100 
09:40	38.0	38.0	38.0	56	23.7	1	5	270	0.00	30.102 
09:45	38.5	38.5	38.5	54	23.3	1	4	338	0.00	30.103 
09:50	38.5	38.5	38.5	50	21.5	2	4	338	0.00	30.104 
09:55	38.6	38.6	38.6	49	21.1	2	9	270	0.00	30.102 
10:00	38.8	38.8	38.8	50	21.8	2	9	0	0.00	30.105 
10:05	39.5	39.5	39.5	52	23.3	1	4	315	0.00	30.109 
10:10	39.3	39.3	39.3	49	21.8	2	6	270	0.00	30.114 
10:15	39.3	39.3	39.3	51	22.7	2	6	338	0.00	30.117 
10:20	39.5	39.5	39.5	48	21.5	2	5	315	0.00	30.116 
10:25	39.6	39.6	39.6	50	22.5	2	6	270	0.00	30.118 
10:30	39.9	39.9	39.9	48	21.8	2	6	248	0.00	30.120 
10:35	40.1	40.1	40.1	48	22.0	2	6	292	0.00	30.122 
10:40	40.8	40.8	40.8	50	23.6	2	5	270	0.00	30.126 
10:45	40.5	40.5	40.5	45	20.8	3	8	270	0.00	30.130 
10:50	40.6	40.6	40.6	46	21.5	2	6	270	0.00	30.131 
10:55	40.6	40.6	40.6	45	20.9	2	6	270	0.00	30.132 
11:00	40.8	40.8	40.8	46	21.6	2	5	315	0.00	30.130 
11:05	41.1	41.1	41.1	45	21.4	2	5	315	0.00	30.132 
11:10	41.2	41.2	41.2	46	22.0	3	6	292	0.00	30.131 
11:15	41.6	41.6	41.6	48	23.4	2	5	338	0.00	30.128 
11:20	41.8	41.8	41.8	43	21.0	3	6	270	0.00	30.130 
11:25	41.9	41.9	41.9	48	23.7	2	5	315	0.00	30.132 
11:30	41.9	41.9	41.9	47	23.2	2	6	292	0.00	30.134 
11:35	42.5	42.5	42.5	44	22.1	2	6	292	0.00	30.138 
11:40	42.5	42.5	42.5	44	22.1	3	10	315	0.00	30.136 
11:45	42.2	39.9	42.2	42	20.8	4	7	315	0.00	30.137 
11:50	42.3	42.3	42.3	44	22.0	2	5	270	0.00	30.139 
11:55	42.2	42.2	42.2	45	22.4	2	5	315	0.00	30.141 
12:00	42.8	42.8	42.8	46	23.5	3	7	270	0.00	30.142 
12:05	42.9	42.9	42.9	46	23.6	3	5	292	0.00	30.146 
12:10	42.6	42.6	42.6	43	21.7	3	6	270	0.00	30.147 
12:15	42.6	42.6	42.6	46	23.3	3	9	270	0.00	30.146 
12:20	42.9	42.9	42.9	44	22.5	3	9	315	0.00	30.146 
12:25	42.6	42.6	42.6	43	21.7	3	6	270	0.00	30.147 
12:30	43.2	43.2	43.2	47	24.3	3	7	270	0.00	30.148 
12:35	43.2	43.2	43.2	44	22.8	3	9	270	0.00	30.148 
12:40	42.8	42.8	42.8	44	22.4	3	7	338	0.00	30.149 
12:45	43.2	43.2	43.2	47	24.3	2	8	292	0.00	30.152 
12:50	43.3	43.3	43.3	47	24.4	3	7	315	0.00	30.151 
12:55	43.5	43.5	43.5	48	25.1	3	7	292	0.00	30.153 
13:00	43.9	43.9	43.9	46	24.5	3	6	292	0.00	30.152 
13:05	44.2	44.2	44.2	46	24.7	3	6	292	0.00	30.154 
13:10	44.2	44.2	44.2	47	25.3	3	5	292	0.00	30.155 
13:15	43.9	43.9	43.9	44	23.4	3	9	315	0.00	30.159 
13:20	44.2	44.2	44.2	47	25.3	3	9	270	0.00	30.157 
13:25	44.3	44.3	44.3	46	24.8	3	11	270	0.00	30.162 
13:30	44.2	42.2	44.2	46	24.7	4	7	270	0.00	30.161 
13:35	44.2	44.2	44.2	47	25.3	3	7	270	0.00	30.161 
13:40	44.8	44.8	44.8	44	24.2	3	6	270	0.00	30.156 
13:45	44.8	44.8	44.8	44	24.2	3	9	315	0.00	30.157 
13:50	45.2	45.2	45.2	46	25.7	3	6	270	0.00	30.155 
13:55	45.4	45.4	45.4	45	25.3	3	6	270	0.00	30.155 
14:00	44.9	44.9	44.9	40	22.1	3	7	315	0.00	30.150 
14:05	45.5	45.5	45.5	42	23.8	3	6	270	0.00	30.150 
14:10	45.4	45.4	45.4	41	23.1	3	9	315	0.00	30.156 
14:15	45.2	45.2	45.2	44	24.6	3	7	270	0.00	30.159 
14:20	45.5	45.5	45.5	43	24.3	3	6	270	0.00	30.159 
14:25	45.1	45.1	45.1	43	24.0	3	7	292	0.00	30.157 
14:30	45.2	45.2	45.2	42	23.5	3	7	292	0.00	30.160 
14:35	45.5	45.5	45.5	42	23.8	3	7	315	0.00	30.156 
14:40	45.8	45.8	45.8	40	22.9	3	7	270	0.00	30.152 
14:45	45.5	45.5	45.5	43	24.3	3	8	292	0.00	30.155 
14:50	45.7	45.7	45.7	38	21.6	3	9	292	0.00	30.157 
14:55	46.0	44.2	46.0	40	23.0	4	9	270	0.00	30.157 
15:00	45.8	44.0	45.8	39	22.3	4	10	270	0.00	30.159 
15:05	45.8	45.8	45.8	39	22.3	3	7	270	0.00	30.160 
15:10	46.2	46.2	46.2	41	23.8	3	9	270	0.00	30.160 
15:15	47.1	47.1	47.1	43	25.8	2	5	270	0.00	30.161 
15:20	47.0	47.0	47.0	42	25.1	2	5	270	0.00	30.161 
15:25	47.3	47.3	47.3	46	27.6	2	7	270	0.00	30.161 
15:30	47.3	47.3	47.3	39	23.6	3	8	270	0.00	30.160 
15:35	46.7	46.7	46.7	39	23.1	3	11	292	0.00	30.159 
15:40	46.4	46.4	46.4	38	22.2	3	8	292	0.00	30.160 
15:45	46.5	46.5	46.5	40	23.5	3	5	270	0.00	30.162 
15:50	46.2	44.5	46.2	42	24.4	4	7	270	0.00	30.162 
15:55	46.2	46.2	46.2	39	22.6	3	7	270	0.00	30.164 
16:00	46.4	44.7	46.4	41	24.0	4	10	270	0.00	30.165 
16:05	46.2	46.2	46.2	40	23.2	3	10	270	0.00	30.165 
16:10	46.1	46.1	46.1	39	22.5	3	7	270	0.00	30.164 
16:15	46.1	46.1	46.1	40	23.1	3	7	270	0.00	30.166 
16:20	46.0	46.0	46.0	41	23.6	3	9	292	0.00	30.167 
16:25	46.0	46.0	46.0	40	23.0	3	9	270	0.00	30.169 
16:30	46.0	44.2	46.0	40	23.0	4	9	270	0.00	30.174 
16:35	45.7	43.9	45.7	40	22.8	4	7	270	0.00	30.175 
16:40	45.5	45.5	45.5	42	23.8	3	6	270	0.00	30.175 
16:45	45.7	45.7	45.7	42	23.9	2	4	248	0.00	30.174 
16:50	45.5	45.5	45.5	42	23.8	2	5	270	0.00	30.175 
16:55	45.4	45.4	45.4	40	22.5	3	6	315	0.00	30.179 
17:00	45.2	45.2	45.2	42	23.5	2	5	315	0.00	30.179 
17:05	45.2	45.2	45.2	43	24.0	2	6	315	0.00	30.179 
17:10	45.2	45.2	45.2	42	23.5	2	6	270	0.00	30.181 
17:15	45.1	45.1	45.1	41	22.8	3	5	270	0.00	30.181 
17:20	44.8	44.8	44.8	41	22.6	2	5	270	0.00	30.181 
17:25	44.5	44.5	44.5	41	22.3	3	9	270	0.00	30.186 
17:30	44.5	44.5	44.5	41	22.3	3	6	270	0.00	30.188 
17:35	44.2	44.2	44.2	41	22.0	2	5	270	0.00	30.189 
17:40	43.9	43.9	43.9	42	22.3	2	6	292	0.00	30.188 
17:45	43.8	43.8	43.8	40	21.1	2	5	292	0.00	30.190 
17:50	43.5	43.5	43.5	40	20.8	2	7	270	0.00	30.189 
17:55	43.3	43.3	43.3	39	20.0	2	5	270	0.00	30.193 
18:00	43.2	43.2	43.2	41	21.1	1	3	248	0.00	30.196 
18:05	42.9	42.9	42.9	41	20.8	2	5	270	0.00	30.196 
18:10	42.8	42.8	42.8	42	21.3	1	4	270	0.00	30.196 
18:15	42.5	42.5	42.5	41	20.5	2	5	338	0.00	30.196 
18:20	42.2	42.2	42.2	42	20.8	1	4	338	0.00	30.195 
18:25	41.9	41.9	41.9	42	20.5	2	6	315	0.00	30.192 
18:30	41.6	41.6	41.6	42	20.2	1	4	315	0.00	30.189 
18:35	41.5	41.5	41.5	43	20.7	0	2	315	0.00	30.192 
18:40	41.2	41.2	41.2	43	20.4	0	3	315	0.00	30.196 
18:45	40.9	40.9	40.9	43	20.1	0	1	292	0.00	30.197 
18:50	40.5	40.5	40.5	45	20.8	0	2	292	0.00	30.198 
18:55	40.2	40.2	40.2	45	20.6	0	3	292	0.00	30.199 
19:00	39.9	39.9	39.9	46	20.8	1	3	315	0.00	30.200 
19:05	39.6	39.6	39.6	45	20.0	0	2	338	0.00	30.202 
19:10	39.5	39.5	39.5	46	20.5	0	3	338	0.00	30.203 
19:15	39.2	39.2	39.2	45	19.7	1	3	315	0.00	30.208 
19:20	39.1	39.1	39.1	46	20.1	0	1	315	0.00	30.210 
19:25	38.8	38.8	38.8	46	19.8	0	2	315	0.00	30.210 
19:30	38.5	38.5	38.5	47	20.0	0	2	315	0.00	30.210 
19:35	38.0	38.0	38.0	48	20.1	0	1	315	0.00	30.210 
19:40	37.6	37.6	37.6	48	19.7	0	1	315	0.00	30.212 
19:45	37.2	37.2	37.2	49	19.8	0	1	315	0.00	30.214 
19:50	37.0	37.0	37.0	50	20.1	0	2	315	0.00	30.216 
19:55	36.9	36.9	36.9	50	20.0	0	1	315	0.00	30.217 
20:00	36.8	36.8	36.8	50	19.9	0	4	270	0.00	30.216 
20:05	36.6	36.6	36.6	50	19.7	0	1	270	0.00	30.217 
20:10	36.5	36.5	36.5	50	19.6	0	0	---	0.00	30.221 
20:15	36.2	36.2	36.2	51	19.8	0	0	---	0.00	30.226 
20:20	35.9	35.9	35.9	52	20.0	0	1	270	0.00	30.228 
20:25	35.6	35.6	35.6	53	20.2	0	1	270	0.00	30.230 
20:30	35.5	35.5	35.5	54	20.5	0	1	270	0.00	30.233 
20:35	35.3	35.3	35.3	54	20.3	0	1	270	0.00	30.238 
20:40	35.2	35.2	35.2	54	20.2	0	1	270	0.00	30.239 
20:45	35.0	35.0	35.0	54	20.1	0	1	270	0.00	30.240 
20:50	34.9	34.9	34.9	54	20.0	0	1	270	0.00	30.242 
20:55	34.6	34.6	34.6	55	20.1	0	0	---	0.00	30.243 
21:00	34.3	34.3	34.3	55	19.8	0	1	270	0.00	30.245 
21:05	34.3	34.3	34.3	55	19.8	0	1	270	0.00	30.244 
21:10	34.1	34.1	34.1	56	20.1	0	1	270	0.00	30.244 
21:15	34.1	34.1	34.1	56	20.1	0	0	---	0.00	30.247 
21:20	33.8	33.8	33.8	56	19.8	0	0	---	0.00	30.253 
21:25	33.8	33.8	33.8	56	19.8	0	0	---	0.00	30.254 
21:30	33.7	33.7	33.7	56	19.7	0	0	---	0.00	30.255 
21:35	33.4	33.4	33.4	57	19.8	0	0	---	0.00	30.251 
21:40	32.9	32.9	32.9	58	19.8	0	0	---	0.00	30.249 
21:45	32.5	32.5	32.5	59	19.8	0	0	---	0.00	30.248 
21:50	32.2	32.2	32.2	60	19.9	0	0	---	0.00	30.250 
21:55	31.9	31.9	31.9	60	19.6	0	0	---	0.00	30.250 
22:00	31.8	31.8	31.8	61	19.9	0	0	---	0.00	30.249 
22:05	31.6	31.6	31.6	61	19.7	0	0	---	0.00	30.246 
22:10	31.5	31.5	31.5	61	19.6	0	0	---	0.00	30.249 
22:15	31.5	31.5	31.5	62	20.0	0	0	---	0.00	30.249 
22:20	31.5	31.5	31.5	62	20.0	0	0	---	0.00	30.248 
22:25	31.3	31.3	31.3	62	19.8	0	0	---	0.00	30.247 
22:30	31.3	31.3	31.3	62	19.8	0	0	---	0.00	30.249 
22:35	31.3	31.3	31.3	62	19.8	0	0	---	0.00	30.253 
22:40	31.3	31.3	31.3	63	20.2	0	0	---	0.00	30.253 
22:45	31.2	31.2	31.2	63	20.1	0	0	---	0.00	30.255 
22:50	31.2	31.2	31.2	64	20.5	0	0	---	0.00	30.255 
22:55	31.0	31.0	31.0	63	19.9	0	0	---	0.00	30.253 
23:00	31.0	31.0	31.0	63	19.9	0	0	---	0.00	30.250 
23:05	30.9	30.9	30.9	63	19.8	0	0	---	0.00	30.249 
23:10	30.9	30.9	30.9	63	19.8	0	0	---	0.00	30.251 
23:15	30.9	30.9	30.9	64	20.2	0	0	---	0.00	30.251 
23:20	30.7	30.7	30.7	64	20.0	0	0	---	0.00	30.256 
23:25	30.7	30.7	30.7	64	20.0	0	0	---	0.00	30.257 
23:30	30.7	30.7	30.7	65	20.3	0	0	---	0.00	30.257 
23:35	30.7	30.7	30.7	65	20.3	0	0	---	0.00	30.258 
23:40	30.7	30.7	30.7	65	20.3	0	0	---	0.00	30.262 
23:45	30.6	30.6	30.6	66	20.6	0	0	---	0.00	30.264 
23:50	30.4	30.4	30.4	65	20.1	0	0	---	0.00	30.269 
23:55	30.1	30.1	30.1	65	19.8	0	0	---	0.00	30.267 

CoCoRaHS
IN-AL-39
A2 Web Hosting
Creative Commons License
GoDaddy
Look for:

loaded 2017-10-19 14:34:28 • last modified 2010-11-18 10:43:29
Privacy PolicyDisclaimer
• wx.awcolley.com is powered by PmWiki v.2002016 •
• all content (unless otherwise noted) © 2017 A W Colley